Time;durP1;ratioP1;P1;durP2;ratioP2;P2;SDS_P1;SDS_P2;PMS_P1;PMS_P2;Temp;Humidity;BMP_temperature;BMP_pressure;BME280_temperature;BME280_humidity;BME280_pressure;Samples;Min_cycle;Max_cycle;Signal;HPM_P1;HPM_P2
2022/07/21 00:00:27;;;;;;;5.03;2.20;;;;;;;22.80;40.70;94919.63;4221319;28;20054;-55
2022/07/21 00:02:28;;;;;;;3.95;2.45;;;;;;;22.63;40.88;94922.19;4233297;27;20400;-56
2022/07/21 00:04:30;;;;;;;2.95;2.20;;;;;;;22.28;41.35;94928.19;4226025;27;20622;-53
2022/07/21 00:06:32;;;;;;;3.03;2.20;;;;;;;22.20;41.36;94926.63;4225769;27;20058;-54
2022/07/21 00:08:34;;;;;;;4.07;2.15;;;;;;;22.23;41.82;94920.06;4235106;27;20063;-54
2022/07/21 00:10:36;;;;;;;3.67;2.60;;;;;;;22.34;41.50;94926.50;4221219;27;20043;-58
2022/07/21 00:12:38;;;;;;;4.20;2.10;;;;;;;22.45;41.62;94923.03;4221501;28;20501;-54
2022/07/21 00:14:40;;;;;;;3.50;2.22;;;;;;;22.52;41.63;94921.09;4228052;27;20052;-55
2022/07/21 00:16:42;;;;;;;2.55;1.92;;;;;;;22.59;41.36;94923.66;4231481;27;20059;-55
2022/07/21 00:18:44;;;;;;;5.03;2.17;;;;;;;22.60;40.72;94923.41;4209201;28;20127;-54
2022/07/21 00:20:46;;;;;;;6.28;2.17;;;;;;;22.62;40.67;94921.34;4209969;28;20048;-53
2022/07/21 00:22:48;;;;;;;3.60;2.00;;;;;;;22.66;41.02;94927.84;4208215;28;20048;-54
2022/07/21 00:24:49;;;;;;;4.15;2.05;;;;;;;22.68;40.74;94933.78;4210156;28;20048;-54
2022/07/21 00:26:51;;;;;;;6.57;2.28;;;;;;;22.70;40.42;94929.03;4207444;28;20180;-56
2022/07/21 00:28:53;;;;;;;3.88;2.22;;;;;;;22.54;41.17;94937.69;4222690;28;20059;-55
2022/07/21 00:30:55;;;;;;;5.67;2.53;;;;;;;22.13;41.96;94927.75;4209962;28;20523;-56
2022/07/21 00:32:58;;;;;;;5.80;2.53;;;;;;;22.14;42.30;94926.72;4209658;28;20048;-55
2022/07/21 00:34:59;;;;;;;6.53;2.58;;;;;;;21.70;44.21;94926.03;4221616;28;20156;-53
2022/07/21 00:37:01;;;;;;;7.28;3.28;;;;;;;20.84;46.92;94934.63;4209571;28;20048;-53
2022/07/21 00:39:03;;;;;;;8.80;3.42;;;;;;;20.21;48.70;94934.59;4210082;28;20427;-51
2022/07/21 00:41:05;;;;;;;8.57;3.65;;;;;;;20.13;49.00;94938.28;4209687;28;20047;-53
2022/07/21 00:43:06;;;;;;;7.65;3.60;;;;;;;20.38;48.18;94934.91;4209580;28;20082;-53
2022/07/21 00:45:09;;;;;;;7.65;3.45;;;;;;;20.72;47.52;94936.34;4212962;28;20051;-52
2022/07/21 00:47:11;;;;;;;7.18;3.42;;;;;;;21.03;46.64;94932.78;4225274;27;20044;-53
2022/07/21 00:49:13;;;;;;;6.75;3.88;;;;;;;21.25;46.25;94927.91;4209116;28;20075;-55
2022/07/21 00:51:15;;;;;;;4.65;3.08;;;;;;;21.43;45.84;94926.31;4209677;28;20473;-55
2022/07/21 00:53:17;;;;;;;6.88;4.00;;;;;;;21.59;45.32;94930.25;4207951;28;20044;-52
2022/07/21 00:55:20;;;;;;;4.95;3.15;;;;;;;21.70;45.23;94921.50;4220883;28;20124;-53
2022/07/21 00:57:22;;;;;;;5.38;3.55;;;;;;;21.80;44.88;94926.31;4211364;28;20063;-53
2022/07/21 00:59:24;;;;;;;10.48;2.97;;;;;;;21.91;44.69;94930.09;4223193;28;20044;-54
2022/07/21 01:01:26;;;;;;;4.70;3.17;;;;;;;21.97;44.71;94930.00;4209336;28;20036;-59
2022/07/21 01:03:28;;;;;;;8.80;3.10;;;;;;;22.00;44.47;94926.88;4208981;28;20052;-56
2022/07/21 01:05:29;;;;;;;7.95;3.35;;;;;;;22.05;44.47;94918.22;4209313;28;20124;-55
2022/07/21 01:07:31;;;;;;;9.73;3.58;;;;;;;22.04;44.40;94917.38;4209851;28;20147;-54
2022/07/21 01:09:34;;;;;;;4.95;3.10;;;;;;;22.07;44.38;94914.28;4208037;28;20055;-54
2022/07/21 01:11:37;;;;;;;6.25;3.13;;;;;;;22.12;44.17;94910.94;4208891;28;20044;-57
2022/07/21 01:13:41;;;;;;;5.22;3.13;;;;;;;22.15;44.10;94913.16;4209310;28;20051;-55
2022/07/21 01:15:43;;;;;;;5.43;3.25;;;;;;;22.17;43.99;94910.25;4220644;28;20086;-54
2022/07/21 01:17:46;;;;;;;5.88;3.28;;;;;;;22.20;44.08;94904.47;4210206;27;20044;-57
2022/07/21 01:19:49;;;;;;;4.78;3.58;;;;;;;22.22;43.82;94915.72;4208990;28;20051;-56
2022/07/21 01:21:52;;;;;;;6.28;3.10;;;;;;;22.23;43.84;94914.72;4207576;28;20074;-55
2022/07/21 01:23:54;;;;;;;4.78;2.92;;;;;;;22.20;44.08;94902.63;4207161;28;20070;-55
2022/07/21 01:25:55;;;;;;;5.57;3.65;;;;;;;22.18;44.18;94907.38;4209234;28;20136;-55
2022/07/21 01:27:57;;;;;;;4.90;3.08;;;;;;;22.19;44.55;94906.31;4208653;28;20044;-59
2022/07/21 01:29:59;;;;;;;6.00;3.53;;;;;;;22.21;44.30;94906.09;4207880;28;20048;-53
2022/07/21 01:32:03;;;;;;;7.63;3.75;;;;;;;22.17;44.32;94902.25;4212722;28;20178;-55
2022/07/21 01:34:05;;;;;;;9.38;3.53;;;;;;;22.11;44.75;94905.81;4215491;28;20048;-56
2022/07/21 01:36:07;;;;;;;5.53;3.50;;;;;;;22.09;44.94;94904.22;4225477;28;20492;-56
2022/07/21 01:41:28;;;;;;;5.90;3.63;;;;;;;22.12;44.82;94896.78;4220446;28;20047;-55
2022/07/21 01:42:52;;;;;;;5.90;3.55;;;;;;;22.11;44.61;94892.47;4216763;28;20059;-54
2022/07/21 01:44:56;;;;;;;5.18;3.40;;;;;;;22.03;45.16;94894.44;4215855;28;20063;-55
2022/07/21 01:46:58;;;;;;;8.18;3.78;;;;;;;22.03;45.21;94894.44;4209552;28;20087;-53
2022/07/21 01:49:00;;;;;;;5.60;3.22;;;;;;;22.05;44.81;94900.34;4223251;28;20361;-54
2022/07/21 01:51:02;;;;;;;5.40;3.45;;;;;;;22.03;44.93;94893.63;4213569;28;20170;-56
2022/07/21 01:53:04;;;;;;;6.50;3.50;;;;;;;22.04;44.67;94897.91;4224609;28;20405;-55
2022/07/21 01:55:06;;;;;;;5.78;3.50;;;;;;;22.00;44.61;94904.72;4216813;28;20120;-54
2022/07/21 01:57:08;;;;;;;6.18;3.38;;;;;;;21.76;44.90;94893.94;4222095;28;20463;-55
2022/07/21 01:59:09;;;;;;;7.20;3.03;;;;;;;21.48;45.38;94908.63;4224098;28;20043;-53
2022/07/21 02:01:11;;;;;;;10.25;3.08;;;;;;;21.17;46.16;94893.53;4209097;28;20043;-56
2022/07/21 02:03:13;;;;;;;5.07;2.90;;;;;;;21.17;46.09;94903.41;4209167;28;20044;-54
2022/07/21 02:05:15;;;;;;;6.75;3.08;;;;;;;21.22;45.81;94900.88;4219144;28;20051;-55
2022/07/21 02:07:17;;;;;;;4.43;2.92;;;;;;;21.32;45.44;94892.38;4216839;28;20113;-53
2022/07/21 02:09:18;;;;;;;8.00;3.03;;;;;;;21.41;45.19;94893.72;4222128;28;20501;-55
2022/07/21 02:11:20;;;;;;;4.80;2.90;;;;;;;21.46;45.25;94896.56;4209284;28;20096;-56
2022/07/21 02:13:22;;;;;;;5.82;3.40;;;;;;;21.45;45.39;94903.75;4209919;28;20098;-55
2022/07/21 02:15:24;;;;;;;4.00;2.53;;;;;;;21.05;45.60;94903.28;4218985;28;20044;-55
2022/07/21 02:17:26;;;;;;;9.60;3.30;;;;;;;20.76;46.51;94902.94;4223470;28;20532;-55
2022/07/21 02:19:28;;;;;;;9.80;2.85;;;;;;;20.82;46.40;94902.06;4225997;28;20469;-56
2022/07/21 02:21:29;;;;;;;5.72;3.10;;;;;;;20.93;45.97;94905.88;4224845;28;20047;-55
2022/07/21 02:23:32;;;;;;;7.72;3.13;;;;;;;21.00;45.79;94903.94;4218065;28;20048;-59
2022/07/21 02:25:34;;;;;;;4.20;2.90;;;;;;;21.11;45.56;94898.94;4217894;28;20048;-55
2022/07/21 02:27:36;;;;;;;4.95;2.90;;;;;;;21.16;44.96;94894.56;4225636;28;20059;-54
2022/07/21 02:29:38;;;;;;;7.38;2.80;;;;;;;21.23;45.43;94899.81;4224196;28;20104;-55
2022/07/21 02:31:39;;;;;;;10.38;3.15;;;;;;;21.16;45.61;94891.91;4211195;28;20055;-58
2022/07/21 02:33:41;;;;;;;4.10;2.95;;;;;;;21.17;45.72;94890.88;4220375;28;20075;-56
2022/07/21 02:35:44;;;;;;;5.03;3.17;;;;;;;21.17;46.01;94901.53;4208543;28;20056;-53
2022/07/21 02:37:45;;;;;;;4.43;2.65;;;;;;;21.24;45.91;94896.16;4217814;28;20454;-55
2022/07/21 02:39:47;;;;;;;7.10;3.13;;;;;;;21.31;45.58;94896.06;4225554;28;20489;-55
2022/07/21 02:41:49;;;;;;;5.70;2.95;;;;;;;21.38;45.27;94896.81;4215385;28;20071;-55
2022/07/21 02:43:50;;;;;;;8.40;3.22;;;;;;;21.37;45.45;94888.00;4225532;28;20527;-53
2022/07/21 02:45:52;;;;;;;6.45;3.13;;;;;;;21.41;45.10;94891.06;4225396;28;20051;-54
2022/07/21 02:47:55;;;;;;;5.13;3.05;;;;;;;21.42;45.28;94887.38;4216090;28;20437;-54
2022/07/21 02:49:57;;;;;;;10.57;3.47;;;;;;;21.41;45.65;94894.56;4220997;28;20120;-54
2022/07/21 02:51:59;;;;;;;6.85;3.05;;;;;;;21.36;45.79;94888.22;4209288;28;20121;-55
2022/07/21 02:54:01;;;;;;;7.53;3.42;;;;;;;21.32;46.06;94887.88;4226164;28;20432;-53
2022/07/21 02:56:03;;;;;;;5.53;3.47;;;;;;;21.32;46.22;94881.72;4222772;28;20078;-53
2022/07/21 02:58:09;;;;;;;6.30;3.00;;;;;;;21.28;46.19;94884.81;4216727;28;20408;-53
2022/07/21 03:00:12;;;;;;;9.30;3.70;;;;;;;20.99;46.79;94890.84;4220654;28;20067;-53
2022/07/21 03:02:14;;;;;;;6.57;3.37;;;;;;;20.76;47.42;94899.47;4209414;28;20075;-52
2022/07/21 03:04:16;;;;;;;10.43;4.00;;;;;;;20.21;48.99;94898.16;4212483;28;20275;-53
2022/07/21 03:06:18;;;;;;;11.82;3.92;;;;;;;19.81;50.23;94892.22;4219179;28;20051;-53
2022/07/21 03:08:20;;;;;;;7.50;4.07;;;;;;;19.42;51.14;94897.47;4216891;28;20075;-53
2022/07/21 03:10:22;;;;;;;13.70;4.47;;;;;;;19.30;51.77;94900.97;4218873;28;20181;-52
2022/07/21 03:12:23;;;;;;;15.63;3.92;;;;;;;19.32;51.85;94896.28;4206290;28;20113;-55
2022/07/21 03:14:25;;;;;;;13.80;4.65;;;;;;;19.44;51.38;94892.75;4212097;28;20486;-52
2022/07/21 03:16:27;;;;;;;7.05;3.92;;;;;;;19.62;50.99;94893.94;4224860;28;20135;-53
2022/07/21 03:18:29;;;;;;;7.30;5.15;;;;;;;19.76;50.48;94902.69;4219075;28;20055;-55
2022/07/21 03:20:33;;;;;;;12.77;4.25;;;;;;;19.88;50.19;94894.88;4217596;28;20408;-52
2022/07/21 03:22:34;;;;;;;;;;;;;;;19.90;49.85;94906.94;4224520;28;20052;-53
2022/07/21 03:24:36;;;;;;;7.78;4.57;;;;;;;19.96;49.40;94892.78;4209887;28;19920;-54
2022/07/21 03:26:38;;;;;;;10.65;4.78;;;;;;;19.98;49.40;94906.69;4208599;28;20048;-53
2022/07/21 03:28:41;;;;;;;12.52;4.05;;;;;;;20.04;49.23;94899.69;4214602;28;20528;-53
2022/07/21 03:30:43;;;;;;;9.75;4.03;;;;;;;20.14;49.17;94901.91;4225706;28;20051;-52
2022/07/21 03:32:45;;;;;;;7.80;4.13;;;;;;;20.27;49.00;94908.97;4224808;28;20044;-53
2022/07/21 03:34:47;;;;;;;5.60;3.53;;;;;;;20.34;49.04;94913.22;4210245;28;20519;-52
2022/07/21 03:36:49;;;;;;;6.25;4.00;;;;;;;20.42;48.30;94906.84;4220639;28;20044;-53
2022/07/21 03:38:51;;;;;;;6.82;3.83;;;;;;;20.53;47.92;94905.31;4214426;28;20553;-54
2022/07/21 03:40:53;;;;;;;6.45;3.92;;;;;;;20.66;47.93;94911.38;4219365;28;20435;-52
2022/07/21 03:42:57;;;;;;;6.70;3.58;;;;;;;20.78;47.27;94903.53;4225505;28;20413;-53
2022/07/21 03:44:58;;;;;;;;;;;;;;;20.90;47.31;94911.59;4223289;28;20059;-53
2022/07/21 03:47:00;;;;;;;9.63;4.00;;;;;;;20.99;47.21;94909.47;4221695;28;19993;-52
2022/07/21 03:49:02;;;;;;;7.82;3.67;;;;;;;21.08;47.05;94908.19;4213238;28;20188;-54
2022/07/21 03:51:04;;;;;;;6.07;3.50;;;;;;;21.14;46.39;94912.63;4225388;28;20528;-52
2022/07/21 03:53:06;;;;;;;8.07;4.25;;;;;;;21.17;45.91;94912.19;4215892;28;20181;-53
2022/07/21 03:55:08;;;;;;;8.02;4.43;;;;;;;21.21;46.16;94908.06;4224214;28;20105;-50
2022/07/21 03:57:15;;;;;;;7.22;3.80;;;;;;;21.18;46.07;94907.69;4227986;28;20211;-52
2022/07/21 03:59:17;;;;;;;7.05;3.85;;;;;;;21.17;46.15;94916.72;4227855;28;20047;-53
2022/07/21 04:01:19;;;;;;;10.35;4.55;;;;;;;21.09;46.10;94917.78;4228798;28;20132;-54
2022/07/21 04:03:21;;;;;;;5.53;3.95;;;;;;;21.08;46.53;94924.16;4228001;28;20040;-52
2022/07/21 04:05:23;;;;;;;8.50;4.47;;;;;;;21.08;46.62;94913.53;4215180;28;20056;-53
2022/07/21 04:07:25;;;;;;;8.97;4.20;;;;;;;21.08;46.65;94918.84;4225181;28;20527;-53
2022/07/21 04:09:27;;;;;;;8.05;4.45;;;;;;;21.13;46.58;94912.84;4223590;28;20052;-54
2022/07/21 04:11:30;;;;;;;8.43;4.82;;;;;;;21.18;46.36;94919.13;4218431;28;20078;-55
2022/07/21 04:13:32;;;;;;;9.30;4.60;;;;;;;21.23;46.26;94924.63;4210453;28;20056;-51
2022/07/21 04:15:34;;;;;;;8.48;4.70;;;;;;;21.34;46.10;94914.28;4225294;28;20051;-52
2022/07/21 04:17:37;;;;;;;10.75;4.75;;;;;;;21.36;45.97;94920.19;4213641;28;20112;-52
2022/07/21 04:19:38;;;;;;;12.13;5.25;;;;;;;21.17;46.38;94917.53;4225106;28;20081;-53
2022/07/21 04:21:40;;;;;;;10.50;4.68;;;;;;;21.15;46.33;94919.59;4210445;28;20051;-54
2022/07/21 04:23:42;;;;;;;9.75;5.05;;;;;;;21.23;46.35;94916.66;4215071;28;20512;-51
2022/07/21 04:25:44;;;;;;;9.88;4.53;;;;;;;21.30;46.11;94913.09;4243470;27;20518;-53
2022/07/21 04:27:46;;;;;;;7.38;4.20;;;;;;;21.38;46.09;94916.28;4224111;28;20048;-52
2022/07/21 04:29:48;;;;;;;10.07;4.55;;;;;;;21.46;45.80;94916.00;4225406;28;20051;-54
2022/07/21 04:31:50;;;;;;;7.03;4.60;;;;;;;21.56;45.63;94914.72;4211161;28;20044;-51
2022/07/21 04:33:51;;;;;;;10.50;4.15;;;;;;;21.63;45.68;94916.25;4210134;28;20139;-53
2022/07/21 04:35:53;;;;;;;8.23;4.03;;;;;;;21.51;44.37;94922.53;4211407;28;20056;-55
2022/07/21 04:37:55;;;;;;;5.90;3.80;;;;;;;21.18;45.84;94918.34;4222041;28;20055;-56
2022/07/21 04:39:56;;;;;;;9.75;4.30;;;;;;;21.09;46.35;94919.66;4226988;28;20193;-52
2022/07/21 04:41:58;;;;;;;11.80;4.00;;;;;;;21.06;46.21;94915.59;4217569;28;20052;-53
2022/07/21 04:44:01;;;;;;;8.93;4.32;;;;;;;21.10;46.03;94921.28;4227487;27;20130;-54
2022/07/21 04:46:02;;;;;;;7.90;3.97;;;;;;;21.11;46.33;94921.06;4228131;27;20058;-56
2022/07/21 04:48:05;;;;;;;9.55;3.70;;;;;;;21.06;46.14;94931.56;4215512;28;20078;-52
2022/07/21 04:50:08;;;;;;;11.75;4.32;;;;;;;20.98;46.73;94927.31;4211242;28;20085;-53
2022/07/21 04:52:10;;;;;;;8.52;4.07;;;;;;;21.10;46.95;94931.94;4223123;28;20047;-55
2022/07/21 04:54:15;;;;;;;11.75;4.03;;;;;;;21.27;46.63;94930.31;4211054;28;20076;-53
2022/07/21 04:56:16;;;;;;;14.98;4.13;;;;;;;21.26;45.93;94929.53;4209947;28;20047;-54
2022/07/21 04:58:18;;;;;;;9.40;3.97;;;;;;;21.37;46.06;94932.50;4210959;28;20055;-55
2022/07/21 05:00:24;;;;;;;12.43;4.00;;;;;;;21.41;46.12;94934.53;4210006;28;20056;-55
2022/07/21 05:02:26;;;;;;;7.05;4.03;;;;;;;21.41;45.92;94931.03;4210176;28;20052;-55
2022/07/21 05:04:28;;;;;;;6.15;4.22;;;;;;;21.43;45.77;94931.66;4210740;28;20055;-56
2022/07/21 05:06:30;;;;;;;8.25;4.05;;;;;;;21.55;45.66;94934.38;4209488;28;20097;-50
2022/07/21 05:08:31;;;;;;;6.45;3.95;;;;;;;21.58;45.00;94941.97;4220009;28;20039;-55
2022/07/21 05:10:33;;;;;;;9.10;3.85;;;;;;;21.64;44.77;94931.22;4245333;27;20051;-51
2022/07/21 05:12:35;;;;;;;8.13;3.70;;;;;;;21.75;44.53;94927.00;4209925;28;20425;-54
2022/07/21 05:14:37;;;;;;;6.07;3.45;;;;;;;21.93;44.59;94928.00;4212598;28;22233;-55
2022/07/21 05:16:39;;;;;;;8.15;3.70;;;;;;;22.09;44.24;94919.38;4225879;28;20107;-58
2022/07/21 05:18:41;;;;;;;5.72;3.78;;;;;;;22.22;43.91;94919.25;4226785;28;20051;-56
2022/07/21 05:20:42;;;;;;;4.93;3.33;;;;;;;22.32;43.74;94916.03;4213095;28;20056;-57
2022/07/21 05:22:44;;;;;;;6.53;4.25;;;;;;;22.40;43.61;94921.06;4208211;28;20409;-56
2022/07/21 05:24:46;;;;;;;8.15;4.20;;;;;;;22.42;42.89;94924.31;4225954;28;20273;-56
2022/07/21 05:26:47;;;;;;;6.30;4.10;;;;;;;22.45;42.67;94929.19;4221875;28;20454;-54
2022/07/21 05:28:49;;;;;;;10.02;3.75;;;;;;;22.44;43.08;94927.56;4209700;28;20052;-55
2022/07/21 05:30:51;;;;;;;7.32;3.60;;;;;;;22.40;42.90;94928.25;4221084;28;20090;-55
2022/07/21 05:32:53;;;;;;;10.65;3.92;;;;;;;22.25;43.38;94926.78;4226140;28;20058;-53
2022/07/21 05:34:55;;;;;;;9.82;4.43;;;;;;;22.20;43.37;94931.13;4226155;28;20104;-54
2022/07/21 05:36:56;;;;;;;8.00;4.07;;;;;;;22.17;44.15;94926.28;4224807;28;20127;-55
2022/07/21 05:38:58;;;;;;;10.25;4.05;;;;;;;22.13;43.44;94935.75;4219196;28;20048;-55
2022/07/21 05:41:02;;;;;;;13.13;4.47;;;;;;;22.09;43.54;94924.72;4213533;28;20427;-54
2022/07/21 05:43:04;;;;;;;8.30;5.40;;;;;;;22.11;43.81;94927.97;4226047;28;20047;-54
2022/07/21 05:45:06;;;;;;;10.40;5.95;;;;;;;21.96;44.62;94931.06;4211753;28;20048;-55
2022/07/21 05:47:08;;;;;;;9.45;3.60;;;;;;;21.83;44.43;94928.53;4225849;28;20496;-55
2022/07/21 05:49:09;;;;;;;11.07;3.80;;;;;;;21.81;44.66;94930.59;4221109;28;20040;-55
2022/07/21 05:51:11;;;;;;;7.95;4.18;;;;;;;21.88;44.58;94934.84;4216230;28;20063;-53
2022/07/21 05:53:19;;;;;;;7.45;3.72;;;;;;;22.11;43.98;94927.97;4224871;28;20043;-54
2022/07/21 05:55:39;;;;;;;6.78;3.42;;;;;;;22.45;42.97;94936.38;4211773;28;20074;-55
2022/07/21 05:57:41;;;;;;;7.90;3.85;;;;;;;22.68;42.94;94933.78;4220780;28;20043;-55
2022/07/21 05:59:47;;;;;;;11.25;4.63;;;;;;;22.83;42.54;94925.34;4218619;28;20113;-55
2022/07/21 06:01:49;;;;;;;13.75;4.40;;;;;;;22.96;42.13;94928.84;4214319;28;20654;-52
2022/07/21 06:03:52;;;;;;;6.65;4.00;;;;;;;23.00;41.87;94925.50;4222892;28;20154;-57
2022/07/21 06:05:53;;;;;;;9.98;3.55;;;;;;;22.97;41.72;94925.13;4226644;28;20089;-52
2022/07/21 06:07:55;;;;;;;9.80;4.00;;;;;;;22.86;42.14;94930.19;4223912;28;20454;-55
2022/07/21 06:09:57;;;;;;;6.28;3.75;;;;;;;22.98;42.07;94926.75;4225954;28;20052;-54
2022/07/21 06:11:59;;;;;;;6.60;3.85;;;;;;;23.17;41.91;94928.31;4226303;28;20120;-56
2022/07/21 06:14:01;;;;;;;7.53;3.60;;;;;;;23.28;41.48;94916.81;4224896;28;20128;-53
2022/07/21 06:16:03;;;;;;;6.18;3.70;;;;;;;23.43;41.42;94919.00;4208257;28;20125;-56
2022/07/21 06:18:05;;;;;;;10.10;4.32;;;;;;;23.53;41.39;94921.06;4209459;28;20152;-55
2022/07/21 06:20:08;;;;;;;10.98;4.20;;;;;;;23.50;40.96;94919.69;4209365;28;20043;-53
2022/07/21 06:22:10;;;;;;;8.00;3.75;;;;;;;23.49;40.90;94915.41;4206324;28;20048;-52
2022/07/21 06:24:11;;;;;;;6.07;4.07;;;;;;;23.67;40.52;94927.00;4212812;27;20109;-55
2022/07/21 06:26:13;;;;;;;9.65;3.65;;;;;;;23.67;40.64;94925.13;4208753;28;20048;-54
2022/07/21 06:28:15;;;;;;;6.72;4.15;;;;;;;23.67;41.17;94927.00;4226249;28;20048;-56
2022/07/21 06:30:16;;;;;;;10.48;4.32;;;;;;;23.62;40.74;94922.34;4219933;28;20113;-54
2022/07/21 06:32:18;;;;;;;10.43;3.72;;;;;;;23.73;41.31;94907.34;4208572;28;20073;-54
2022/07/21 06:34:20;;;;;;;12.35;3.90;;;;;;;23.86;41.29;94908.97;4209336;28;20052;-54
2022/07/21 06:36:21;;;;;;;10.00;4.38;;;;;;;24.06;41.01;94905.88;4208551;28;20048;-54
2022/07/21 06:38:23;;;;;;;8.75;3.72;;;;;;;24.21;40.47;94906.16;4207269;28;20051;-54
2022/07/21 06:40:25;;;;;;;9.02;3.90;;;;;;;24.35;40.02;94903.19;4213899;28;20047;-54
2022/07/21 06:42:27;;;;;;;4.65;3.08;;;;;;;24.49;39.46;94904.56;4226151;28;20055;-55
2022/07/21 06:44:28;;;;;;;6.32;3.30;;;;;;;24.45;39.22;94900.69;4225924;28;20064;-54
2022/07/21 06:46:30;;;;;;;7.38;3.22;;;;;;;24.39;39.77;94904.34;4212954;28;20060;-56
2022/07/21 06:48:32;;;;;;;9.35;3.78;;;;;;;24.47;39.66;94910.09;4208107;28;20055;-57
2022/07/21 06:50:34;;;;;;;11.88;3.90;;;;;;;24.55;39.70;94913.50;4208954;28;20055;-57
2022/07/21 06:52:37;;;;;;;5.27;3.27;;;;;;;24.59;39.16;94901.25;4213024;28;20065;-54
2022/07/21 06:54:39;;;;;;;8.18;3.00;;;;;;;24.57;39.79;94906.84;4216652;28;20108;-54
2022/07/21 06:56:41;;;;;;;11.02;3.80;;;;;;;24.53;39.54;94909.19;4208632;28;20101;-53
2022/07/21 06:58:42;;;;;;;10.93;3.75;;;;;;;24.49;39.68;94907.22;4222725;28;20443;-58
2022/07/21 07:00:51;;;;;;;9.02;3.00;;;;;;;24.58;39.76;94904.97;4221879;28;20147;-56
2022/07/21 07:02:53;;;;;;;7.60;3.15;;;;;;;24.70;39.87;94905.72;4207691;28;20350;-55
2022/07/21 07:04:55;;;;;;;8.15;3.50;;;;;;;24.83;39.37;94910.75;4208795;28;20060;-55
2022/07/21 07:07:02;;;;;;;4.35;3.40;;;;;;;24.70;39.85;94908.41;4206678;28;20052;-56
2022/07/21 07:09:04;;;;;;;9.82;3.50;;;;;;;24.73;39.98;94907.91;4223384;28;20127;-52
2022/07/21 07:11:06;;;;;;;6.00;3.33;;;;;;;24.64;40.14;94901.34;4222394;28;20051;-54
2022/07/21 07:13:09;;;;;;;7.38;3.75;;;;;;;24.77;40.06;94905.56;4225575;28;20040;-54
2022/07/21 07:15:30;;;;;;;14.68;3.97;;;;;;;24.90;40.36;94895.31;4214162;28;20070;-55
2022/07/21 07:17:32;;;;;;;6.90;3.88;;;;;;;24.93;39.99;94896.72;4220504;28;20132;-56
2022/07/21 07:19:34;;;;;;;11.90;4.53;;;;;;;25.07;40.50;94894.53;4210347;28;20428;-54
2022/07/21 07:21:36;;;;;;;11.30;4.70;;;;;;;25.29;40.18;94891.91;4224164;28;20104;-57
2022/07/21 07:23:38;;;;;;;5.72;4.00;;;;;;;25.51;39.52;94898.16;4225273;28;20537;-55
2022/07/21 07:25:40;;;;;;;8.48;3.72;;;;;;;25.50;39.15;94890.34;4225515;28;20051;-56
2022/07/21 07:27:46;;;;;;;23.08;10.38;;;;;;;25.47;39.61;94888.97;4213560;28;20048;-56
2022/07/21 07:29:48;;;;;;;9.65;5.63;;;;;;;25.40;39.82;94891.00;4227219;28;20945;-53
2022/07/21 07:31:49;;;;;;;10.20;5.50;;;;;;;25.53;39.79;94892.50;4223550;28;20087;-54
2022/07/21 07:33:51;;;;;;;8.13;4.25;;;;;;;25.54;40.09;94884.22;4211918;28;20493;-54
2022/07/21 07:35:56;;;;;;;12.75;7.60;;;;;;;25.56;40.17;94885.88;4211786;28;20139;-56
2022/07/21 07:37:57;;;;;;;6.43;3.97;;;;;;;25.63;39.84;94892.66;4210289;28;20052;-55
2022/07/21 07:39:59;;;;;;;13.48;3.80;;;;;;;25.71;39.55;94886.06;4211115;28;20052;-56
2022/07/21 07:42:02;;;;;;;8.70;3.63;;;;;;;25.80;39.36;94884.56;4213970;28;20044;-57
2022/07/21 07:44:04;;;;;;;11.25;4.47;;;;;;;25.74;39.33;94880.19;4228574;27;20051;-56
2022/07/21 07:46:07;;;;;;;5.57;3.65;;;;;;;26.07;39.17;94871.22;4216952;28;20213;-58
2022/07/21 07:48:09;;;;;;;15.05;5.18;;;;;;;26.23;38.91;94880.22;4222490;28;20051;-54
2022/07/21 07:50:12;;;;;;;21.52;8.18;;;;;;;26.22;39.54;94877.78;4228111;28;20055;-54
2022/07/21 07:52:14;;;;;;;;;;;;;;;26.46;38.69;94876.44;4213738;28;20039;-54
2022/07/21 07:54:15;;;;;;;7.85;4.00;;;;;;;26.66;38.44;94878.53;4222525;28;19920;-54
2022/07/21 07:56:17;;;;;;;7.75;2.80;;;;;;;26.75;37.14;94873.50;4219634;28;20085;-57
2022/07/21 07:58:19;;;;;;;6.25;3.25;;;;;;;26.91;37.24;94872.56;4217456;28;20052;-55
2022/07/21 08:00:21;;;;;;;9.50;2.95;;;;;;;26.99;37.34;94867.75;4210982;28;20109;-56
2022/07/21 08:02:43;;;;;;;15.30;8.10;;;;;;;26.75;37.24;94871.59;4211195;28;20044;-55
2022/07/21 08:04:44;;;;;;;8.43;4.22;;;;;;;26.74;36.81;94859.25;4211086;28;20519;-52
2022/07/21 08:06:46;;;;;;;9.75;4.15;;;;;;;26.74;37.12;94869.19;4210146;28;20398;-52
2022/07/21 08:08:48;;;;;;;6.07;3.00;;;;;;;26.69;37.53;94864.56;4224399;28;20055;-53
2022/07/21 08:10:50;;;;;;;5.65;3.10;;;;;;;26.91;37.08;94859.13;4227601;28;20051;-55
2022/07/21 08:12:51;;;;;;;7.97;3.72;;;;;;;27.04;36.19;94857.03;4223585;27;20502;-55
2022/07/21 08:14:53;;;;;;;5.53;3.15;;;;;;;27.13;37.06;94855.50;4216294;28;20492;-54
2022/07/21 08:16:55;;;;;;;6.18;2.65;;;;;;;27.33;36.09;94860.22;4219241;28;20399;-57
2022/07/21 08:18:56;;;;;;;6.60;2.75;;;;;;;27.46;35.80;94849.00;4221725;28;20491;-55
2022/07/21 08:20:58;;;;;;;9.70;3.13;;;;;;;27.63;34.88;94845.31;4227927;28;20047;-54
2022/07/21 08:23:00;;;;;;;7.75;2.90;;;;;;;27.68;34.87;94850.69;4209823;28;20056;-56
2022/07/21 08:25:02;;;;;;;6.57;2.47;;;;;;;27.79;33.82;94852.34;4212981;28;20048;-54
2022/07/21 08:27:04;;;;;;;5.60;2.60;;;;;;;27.88;33.65;94852.72;4209049;28;20105;-54
2022/07/21 08:29:06;;;;;;;4.90;2.45;;;;;;;28.00;33.17;94847.88;4221497;28;20361;-58
2022/07/21 08:31:08;;;;;;;8.00;2.30;;;;;;;28.13;33.24;94843.88;4214832;28;20512;-54
2022/07/21 08:33:10;;;;;;;2.58;2.20;;;;;;;28.20;33.34;94844.47;4211299;28;20087;-53
2022/07/21 08:35:12;;;;;;;8.20;2.53;;;;;;;28.25;32.85;94839.06;4223870;28;20144;-56
2022/07/21 08:37:14;;;;;;;5.13;2.35;;;;;;;28.32;32.33;94847.69;4209000;28;20472;-55
2022/07/21 08:39:16;;;;;;;7.78;2.55;;;;;;;28.28;31.90;94843.91;4209085;28;20043;-55
2022/07/21 08:41:17;;;;;;;4.88;2.75;;;;;;;28.33;32.51;94840.41;4210878;28;20116;-54
2022/07/21 08:43:19;;;;;;;4.38;2.85;;;;;;;28.27;32.34;94838.81;4225237;28;20047;-55
2022/07/21 08:45:24;;;;;;;6.22;3.03;;;;;;;28.14;32.46;94832.06;4225057;28;20055;-54
2022/07/21 08:47:26;;;;;;;4.43;2.47;;;;;;;28.34;32.86;94840.16;4215211;28;20127;-56
2022/07/21 08:49:29;;;;;;;7.47;2.65;;;;;;;28.62;32.67;94831.88;4227819;28;20043;-56
2022/07/21 08:51:36;;;;;;;6.97;2.92;;;;;;;28.70;32.05;94832.13;4224836;28;20538;-55
2022/07/21 08:53:38;;;;;;;9.13;3.20;;;;;;;28.86;32.19;94826.75;4212865;27;20424;-57
2022/07/21 08:55:40;;;;;;;3.65;2.65;;;;;;;29.07;31.47;94827.53;4227094;28;20044;-54
2022/07/21 08:57:42;;;;;;;4.47;2.40;;;;;;;29.15;30.95;94835.09;4227365;28;20055;-55
2022/07/21 08:59:47;;;;;;;4.70;2.83;;;;;;;28.99;31.27;94820.78;4227520;28;20134;-57
2022/07/21 09:01:49;;;;;;;5.47;2.45;;;;;;;29.09;31.88;94822.66;4217647;28;20052;-58
2022/07/21 09:03:51;;;;;;;8.52;2.72;;;;;;;29.25;31.72;94818.06;4210066;28;20060;-56
2022/07/21 09:06:13;;;;;;;5.95;2.90;;;;;;;29.23;31.66;94820.22;4225916;28;20094;-56
2022/07/21 09:08:14;;;;;;;3.33;2.28;;;;;;;29.36;31.11;94804.28;4216831;28;20557;-55
2022/07/21 09:10:22;;;;;;;6.90;3.28;;;;;;;29.35;31.20;94824.25;4212482;28;20051;-57
2022/07/21 09:12:25;;;;;;;5.72;2.70;;;;;;;28.87;31.67;94818.38;4222713;28;20051;-57
2022/07/21 09:14:30;;;;;;;6.32;2.85;;;;;;;28.95;31.80;94815.16;4211431;28;20128;-62
2022/07/21 09:16:34;;;;;;;4.20;2.92;;;;;;;28.87;31.74;94814.88;4221477;28;20436;-56
2022/07/21 09:18:51;;;;;;;7.45;2.90;;;;;;;29.15;31.59;94808.94;4211016;28;20117;-56
2022/07/21 09:20:54;;;;;;;4.22;2.90;;;;;;;29.44;31.03;94799.41;4222870;28;20047;-55
2022/07/21 09:23:02;;;;;;;4.93;2.80;;;;;;;29.72;30.78;94806.88;4224851;28;20258;-57
2022/07/21 09:25:07;;;;;;;3.20;2.25;;;;;;;29.78;30.63;94803.06;4221296;28;20087;-57
2022/07/21 09:27:27;;;;;;;6.38;2.53;;;;;;;29.80;30.47;94797.41;4210508;28;20058;-57
2022/07/21 09:29:52;;;;;;;4.70;2.85;;;;;;;29.82;30.46;94797.13;4209808;28;20515;-56
2022/07/21 09:31:53;;;;;;;4.35;2.60;;;;;;;29.92;30.37;94805.16;4214441;28;20130;-54
2022/07/21 09:33:57;;;;;;;4.50;3.13;;;;;;;29.89;30.28;94800.31;4219493;28;20145;-57
2022/07/21 09:36:09;;;;;;;;;;;;;;;29.88;30.44;94794.13;4209099;28;20509;-54
2022/07/21 09:38:11;;;;;;;7.20;3.80;;;;;;;29.75;30.29;94797.41;4207650;28;19920;-56